Latest Coastal Weather Observations for Taree Airport

IDN60701

Issued at 12:41 pm EST Thursday 3 September 2015 (issued every 10 minutes, with the page automatically refreshed every 10 minutes)

About coastal observations | Map of coastal stations | Coastal observations for NSW | Marine services | Other Formats
Station Details ID: 060141 Name: TAREE AIRPORT AWS Lat: -31.89 Lon: 152.51 Height: 8.0 m
Data from the previous 72 hours. | See also: Recent months at Taree Airport
Date/Time
EST
Temp

°C
Wind Pressure Rain
since 9am
mm
Weather Cloud Vis
km
Sea
Height
m
Swell
Dir
 
Speed
knots
Gust
knots
hPa Trend Height
m
Period
s
Dir
03/12:30pm 20.9 W 17 26 1005.3 - 0.0 - - 10 - - - -
03/12:17pm 21.2 W 15 25 1005.4 - 0.0 - - 10 - - - -
03/12:00pm 21.0 W 14 21 1005.5 - 0.0 - - 10 - - - -
03/11:36am 21.0 W 15 27 1005.7 - 0.0 - - 10 - - - -
03/11:30am 21.2 W 13 23 1005.7 - 0.0 - - 10 - - - -
03/11:00am 20.7 W 12 18 1006.1 - 0.0 - - 10 - - - -
03/10:30am 20.1 W 12 17 1006.5 - 0.0 - - 10 - - - -
03/10:00am 19.5 WNW 13 19 1006.8 - 0.0 - - 10 - - - -
03/09:30am 19.2 NW 11 14 1007.0 - 0.0 - - 10 - - - -
03/09:00am 18.0 NW 7 9 1007.4 - 4.6 - - 10 - - - -
03/08:30am 15.2 NW 5 6 1007.4 - 4.6 - - 10 - - - -
03/08:00am 13.7 NW 4 5 1007.4 - 4.6 - - 10 - - - -
03/07:30am 12.1 NW 4 5 1007.4 - 4.6 - - 10 - - - -
03/07:00am 11.3 CALM 0 0 1007.0 - 4.6 - - 10 - - - -
03/06:30am 11.0 W 4 5 1006.9 - 4.6 - - 10 - - - -
03/06:00am 11.0 NNE 3 6 1006.7 - 4.6 Rain Cloudy 10 - - - -
03/05:30am 11.3 NE 7 11 1007.1 - 4.6 - Partly cloudy 10 - - - -
03/05:00am 11.9 W 6 8 1008.9 - 3.2 - Partly cloudy 10 - - - -
03/04:58am 11.9 W 6 11 1008.9 - 3.0 - Partly cloudy 10 - - - -
03/04:46am 12.5 WSW 13 21 1009.0 - 2.6 - Partly cloudy 5 - - - -
03/04:30am 12.7 W 14 25 1008.3 - 0.8 - Partly cloudy 10 - - - -
03/04:25am 12.1 W 9 22 1007.9 - 0.8 - Partly cloudy 10 - - - -
03/04:00am 12.5 WSW 5 6 1006.2 - 0.8 - Partly cloudy 10 - - - -
03/03:30am 12.3 CALM 0 0 1006.3 - 0.8 - Partly cloudy 10 - - - -
03/03:00am 12.5 ESE 4 5 1006.7 - 0.8 Showers Mostly cloudy 10 - - - -
03/02:30am 12.8 NW 2 5 1008.0 - 0.6 - Partly cloudy 10 - - - -
03/02:00am 13.5 WNW 4 6 1008.1 - 0.2 - Partly cloudy 10 - - - -
03/01:30am 13.8 WSW 1 4 1008.2 - 0.0 - Partly cloudy 10 - - - -
03/01:00am 16.4 NNE 5 8 1008.6 - 0.0 - Partly cloudy 10 - - - -
03/12:30am 16.4 NE 7 13 1008.2 - 0.0 - - 10 - - - -
03/12:00am 16.0 NE 9 15 1009.0 - 0.0 - Cloudy 10 - - - -
 
Date/Time
EST
Temp

°C
Wind Pressure Rain
since 9am
mm
Weather Cloud Vis
km
Sea
Height
m
Swell
Dir
 
Speed
knots
Gust
knots
hPa Trend Height
m
Period
s
Dir
02/11:30pm 16.1 NE 9 14 1009.3 - 0.0 - Partly cloudy 10 - - - -
02/11:00pm 16.1 NE 6 12 1009.8 - 0.0 - Partly cloudy 10 - - - -
02/10:30pm 14.9 NE 7 9 1010.4 - 0.0 - - 10 - - - -
02/10:00pm 15.1 NE 4 6 1011.1 - 0.0 - - 10 - - - -
02/09:30pm 14.1 NE 5 8 1011.4 - 0.0 - - 10 - - - -
02/09:00pm 15.1 NE 6 9 1011.7 - 0.0 - Cloudy 10 - - - -
02/08:30pm 15.7 NE 5 7 1012.2 - 0.0 - - 10 - - - -
02/08:00pm 14.5 NE 3 5 1012.4 - 0.0 - - 10 - - - -
02/07:30pm 14.3 ENE 4 6 1012.4 - 0.0 - - 10 - - - -
02/07:00pm 15.3 ENE 6 9 1012.7 - 0.0 - - 10 - - - -
02/06:30pm 14.8 NE 6 7 1013.0 - 0.0 - - 10 - - - -
02/06:00pm 15.0 NE 7 8 1013.0 - 0.0 - Partly cloudy 10 - - - -
02/05:30pm 16.5 ENE 9 12 1012.6 - 0.0 - - 10 - - - -
02/05:00pm 17.9 ENE 9 12 1012.6 - 0.0 - - 10 - - - -
02/04:30pm 18.2 ENE 9 12 1012.4 - 0.0 - - 10 - - - -
02/04:00pm 18.9 E 10 15 1012.5 - 0.0 - - 10 - - - -
02/03:30pm 19.3 E 10 15 1012.8 - 0.0 - - 10 - - - -
02/03:00pm 20.3 ENE 9 15 1013.3 - 0.0 - - 10 - - - -
02/02:30pm 20.3 ENE 7 12 1013.5 - 0.0 - - 10 - - - -
02/02:00pm 20.5 NE 7 11 1013.8 - 0.0 - - 10 - - - -
02/01:30pm 19.9 NE 7 11 1014.1 - 0.0 - - 10 - - - -
02/01:00pm 20.0 ENE 8 15 1014.4 - 0.0 - - 10 - - - -
02/12:30pm 19.9 ENE 9 13 1015.6 - 0.0 - - 10 - - - -
02/12:00pm 18.5 ENE 6 10 1016.5 - 0.0 - - 10 - - - -
02/11:30am 17.1 ENE 7 10 1017.1 - 0.0 - - 10 - - - -
02/11:00am 16.4 NNE 5 6 1017.8 - 0.0 - Partly cloudy 10 - - - -
02/10:30am 15.3 N 4 5 1018.1 - 0.0 - Partly cloudy 10 - - - -
02/10:00am 14.8 S 1 4 1018.2 - 0.0 - - 10 - - - -
02/09:30am 13.4 WSW 1 4 1018.5 - 0.0 - - 10 - - - -
02/09:00am 10.6 WSW 1 3 1018.8 - 0.0 - Mostly cloudy 10 - - - -
02/08:30am 9.2 WNW 4 4 1019.0 - 0.0 - - 10 - - - -
02/08:00am 8.0 WNW 5 6 1018.9 - 0.0 - - 10 - - - -
02/07:30am 6.9 WNW 4 5 1018.8 - 0.0 - - 10 - - - -
02/07:00am 6.2 WSW 4 6 1018.7 - 0.0 - - 10 - - - -
02/06:30am 2.9 NNE 1 3 1018.2 - 0.0 - - 10 - - - -
02/06:00am 5.2 WNW 3 4 1017.6 - 0.0 - - 10 - - - -
02/05:30am 3.8 CALM 0 0 1017.3 - 0.0 - - 10 - - - -
02/05:00am 6.9 W 6 7 1017.2 - 0.0 - - 10 - - - -
02/04:30am 4.0 CALM 0 0 1017.1 - 0.0 - - 10 - - - -
02/04:00am 6.8 WNW 4 5 1016.8 - 0.0 - - 10 - - - -
02/03:30am 7.0 WSW 6 8 1016.5 - 0.0 - - 10 - - - -
02/03:00am 6.1 W 5 6 1016.2 - 0.0 - - 10 - - - -
02/02:30am 6.2 WSW 4 5 1016.4 - 0.0 - - 10 - - - -
02/02:00am 4.9 W 1 3 1016.5 - 0.0 - - 10 - - - -
02/01:30am 5.4 CALM 0 0 1016.6 - 0.0 - - 10 - - - -
02/01:00am 5.2 CALM 0 0 1016.3 - 0.0 - - 10 - - - -
02/12:30am 6.3 WSW 4 4 1016.2 - 0.0 - - 10 - - - -
02/12:00am 5.9 NNW 2 4 1016.2 - 0.0 - - 10 - - - -
 
Date/Time
EST
Temp

°C
Wind Pressure Rain
since 9am
mm
Weather Cloud Vis
km
Sea
Height
m
Swell
Dir
 
Speed
knots
Gust
knots
hPa Trend Height
m
Period
s
Dir
01/11:30pm 7.2 WNW 3 4 1016.2 - 0.0 - - 10 - - - -
01/11:00pm 7.8 WSW 3 4 1016.2 - 0.0 - - 10 - - - -
01/10:30pm 7.2 CALM 0 0 1016.3 - 0.0 - - 10 - - - -
01/10:00pm 8.6 CALM 0 0 1016.2 - 0.0 - - 10 - - - -
01/09:30pm 9.2 WNW 3 5 1016.0 - 0.0 - - 10 - - - -
01/09:00pm 10.2 CALM 0 1 1015.7 - 0.0 - - 10 - - - -
01/08:30pm 10.3 CALM 0 0 1015.6 - 0.0 - - 10 - - - -
01/08:00pm 11.5 CALM 0 0 1015.2 - 0.0 - - 10 - - - -
01/07:30pm 12.0 NW 3 4 1014.9 - 0.0 - - 10 - - - -
01/07:00pm 12.8 N 5 6 1014.6 - 0.0 - - 10 - - - -
01/06:30pm 13.4 ENE 3 5 1014.2 - 0.0 - - 10 - - - -
01/06:00pm 14.2 NNE 4 5 1014.0 - 0.0 - - 10 - - - -
01/05:30pm 15.4 NE 4 6 1013.7 - 0.0 - - 10 - - - -
01/05:00pm 16.5 E 6 8 1013.3 - 0.0 - - 10 - - - -
01/04:30pm 17.3 ESE 8 12 1012.9 - 0.0 - - 10 - - - -
01/04:00pm 18.0 ESE 10 14 1012.7 - 0.0 - - 10 - - - -
01/03:30pm 18.6 ESE 9 11 1012.6 - 0.0 - - 10 - - - -
01/03:00pm 19.1 ESE 7 12 1012.4 - 0.0 - - 10 - - - -
01/02:30pm 20.3 SSW 7 9 1012.5 - 0.0 - - 10 - - - -
01/02:00pm 20.1 SW 9 12 1012.7 - 0.0 - - 10 - - - -
01/01:30pm 19.6 SW 9 15 1012.8 - 0.0 - - 10 - - - -
01/01:00pm 19.2 SW 9 16 1013.2 - 0.0 - - 10 - - - -
01/12:30pm 18.6 WSW 8 15 1013.7 - 0.0 - - 10 - - - -
01/12:00pm 17.8 SW 8 13 1014.2 - 0.0 - - 10 - - - -
01/11:30am 17.8 WSW 6 10 1014.6 - 0.0 - - 10 - - - -
01/11:00am 17.5 W 7 10 1015.0 - 0.0 - - 10 - - - -
01/10:30am 16.2 WSW 7 12 1015.6 - 0.0 - - 10 - - - -
01/10:00am 16.1 W 7 11 1015.7 - 0.0 - - 10 - - - -
01/09:30am 15.0 WSW 8 11 1015.7 - 0.0 - - 10 - - - -
01/09:00am 14.3 WNW 6 10 1016.0 - 0.0 - - 10 - - - -
01/08:30am 12.8 W 6 7 1016.0 - 0.0 - - 10 - - - -
01/08:00am 11.6 W 4 6 1015.9 - 0.0 - - 10 - - - -
01/07:30am 10.4 WSW 5 6 1015.6 - 0.0 - - 10 - - - -
01/07:00am 9.3 WSW 7 8 1015.3 - 0.0 - - 10 - - - -
01/06:30am 8.3 WSW 6 8 1015.0 - 0.0 - - 10 - - - -
01/06:00am 7.5 WSW 5 7 1014.7 - 0.0 - - 10 - - - -
01/05:30am 7.9 WNW 5 7 1014.5 - 0.0 - - 10 - - - -
01/05:00am 8.1 W 5 6 1014.2 - 0.0 - - 10 - - - -
01/04:30am 8.5 W 6 7 1014.0 - 0.0 - - 10 - - - -
01/04:00am 8.5 WSW 7 8 1014.0 - 0.0 - - 10 - - - -
01/03:30am 7.5 WSW 5 6 1013.9 - 0.0 - - 10 - - - -
01/03:00am 8.0 WSW 5 6 1013.8 - 0.0 - - 10 - - - -
01/02:30am 8.3 W 4 5 1013.9 - 0.0 - - 10 - - - -
01/02:00am 8.5 WSW 4 5 1014.2 - 0.0 - - 10 - - - -
01/01:30am 8.9 WSW 5 6 1014.4 - 0.0 - - 10 - - - -
01/01:00am 8.9 WSW 5 6 1014.9 - 0.0 - - 10 - - - -
01/12:30am 9.3 W 7 8 1015.0 - 0.0 - - 10 - - - -
01/12:00am 8.8 CALM 0 0 1015.1 - 0.0 - - 10 - - - -
 
Date/Time
EST
Temp

°C
Wind Pressure Rain
since 9am
mm
Weather Cloud Vis
km
Sea
Height
m
Swell
Dir
 
Speed
knots
Gust
knots
hPa Trend Height
m
Period
s
Dir
31/11:30pm 8.5 NNW 1 4 1015.1 - 0.0 - - 10 - - - -
31/11:00pm 9.9 CALM 0 0 1015.2 - 0.0 - Partly cloudy 10 - - - -
31/10:30pm 10.9 W 4 4 1015.4 - 0.0 - Partly cloudy 10 - - - -
31/10:00pm 11.6 WNW 1 3 1015.6 - 0.0 - Partly cloudy 10 - - - -
31/09:30pm 12.0 W 5 6 1015.6 - 0.0 - Cloudy 10 - - - -
31/09:00pm 12.4 CALM 0 0 1015.4 - 0.0 - Cloudy 10 - - - -
31/08:30pm 12.5 NW 4 5 1015.1 - 0.0 - Cloudy 10 - - - -
31/08:00pm 11.9 NW 3 5 1015.1 - 0.0 - Cloudy 10 - - - -
31/07:30pm 10.8 NW 1 4 1014.9 - 0.0 - Partly cloudy 10 - - - -
31/07:00pm 11.7 CALM 0 0 1014.4 - 0.0 - - 10 - - - -
31/06:30pm 13.3 CALM 0 0 1014.1 - 0.0 - Partly cloudy 10 - - - -
31/06:00pm 13.8 CALM 0 0 1013.9 - 0.0 - Partly cloudy 10 - - - -
31/05:30pm 14.8 E 3 5 1013.8 - 0.0 - Partly cloudy 10 - - - -
31/05:00pm 16.1 SSE 5 8 1013.6 - 0.0 - Partly cloudy 10 - - - -
31/04:30pm 16.5 SSE 7 9 1013.3 - 0.0 - Partly cloudy 10 - - - -
31/04:00pm 17.0 SSE 9 13 1013.1 - 0.0 - Cloudy 10 - - - -
31/03:30pm 18.3 S 5 7 1013.1 - 0.0 - Partly cloudy 10 - - - -
31/03:00pm 18.3 S 5 8 1013.3 - 0.0 - Cloudy 10 - - - -
31/02:30pm 18.1 SW 7 9 1013.4 - 0.0 - Partly cloudy 10 - - - -
31/02:00pm 18.3 SW 7 11 1013.6 - 0.0 - Cloudy 10 - - - -
31/01:30pm 18.5 SW 9 14 1013.7 - 0.0 - Partly cloudy 10 - - - -
31/01:00pm 18.7 WSW 9 14 1013.9 - 0.0 - Partly cloudy 10 - - - -

Other Formats:

Comma delimited format used in spreadsheet applications
http://www.bom.gov.au/fwo/IDN60701/IDN60701.95784.axf

JavaScript Object Notation format (JSON) in row-major order
http://www.bom.gov.au/fwo/IDN60701/IDN60701.95784.json